createdAt,value
2022-12-28T00:00:16.722Z,55
2022-12-28T00:05:19.688Z,55
2022-12-28T00:10:16.650Z,55
2022-12-28T00:15:19.659Z,56
2022-12-28T00:20:19.586Z,56
2022-12-28T00:25:16.709Z,56
2022-12-28T00:30:16.667Z,56
2022-12-28T00:35:19.672Z,56
2022-12-28T00:40:23.605Z,57
2022-12-28T00:45:19.650Z,57
2022-12-28T00:50:19.674Z,57
2022-12-28T00:55:19.652Z,57
2022-12-28T01:00:16.590Z,57
2022-12-28T01:05:19.729Z,57
2022-12-28T01:10:16.676Z,57
2022-12-28T01:15:19.706Z,58
2022-12-28T01:20:19.694Z,58
2022-12-28T01:25:19.675Z,58
2022-12-28T01:30:19.663Z,58
2022-12-28T01:35:19.660Z,58
2022-12-28T01:40:16.457Z,59
2022-12-28T01:45:19.687Z,59
2022-12-28T01:50:16.688Z,59
2022-12-28T01:55:19.765Z,59
2022-12-28T02:00:19.720Z,59
2022-12-28T02:05:16.709Z,60
2022-12-28T02:10:41.569Z,60
2022-12-28T02:15:23.052Z,60
2022-12-28T02:20:16.577Z,60
2022-12-28T02:25:16.772Z,60
2022-12-28T02:30:19.674Z,60
2022-12-28T02:35:16.706Z,60
2022-12-28T02:40:19.708Z,60
2022-12-28T02:45:19.691Z,60
2022-12-28T02:50:16.736Z,60
2022-12-28T02:55:16.716Z,61
2022-12-28T03:00:16.534Z,61
2022-12-28T03:05:16.738Z,61
2022-12-28T03:10:19.715Z,61
2022-12-28T03:15:19.715Z,61
2022-12-28T03:20:16.718Z,61
2022-12-28T03:25:20.759Z,61
2022-12-28T03:30:16.755Z,62
2022-12-28T03:35:19.797Z,62
2022-12-28T03:40:19.689Z,62
2022-12-28T03:45:46.582Z,62
2022-12-28T03:50:19.726Z,62
2022-12-28T03:55:16.871Z,63
2022-12-28T04:00:19.862Z,63
2022-12-28T04:05:19.755Z,63
2022-12-28T04:10:19.736Z,63
2022-12-28T04:15:19.759Z,63
2022-12-28T04:20:16.775Z,63
2022-12-28T04:25:19.749Z,64
2022-12-28T04:30:19.764Z,64
2022-12-28T04:35:19.731Z,64
2022-12-28T04:40:19.753Z,64
2022-12-28T04:45:22.249Z,64
2022-12-28T04:50:19.751Z,65
2022-12-28T04:55:31.446Z,65
2022-12-28T05:00:18.959Z,65
2022-12-28T05:05:19.036Z,65
2022-12-28T05:10:18.990Z,65
2022-12-28T05:15:19.015Z,66
2022-12-28T05:20:16.078Z,66
2022-12-28T05:25:19.097Z,66
2022-12-28T05:30:19.031Z,66
2022-12-28T05:35:19.021Z,66
2022-12-28T05:40:19.017Z,66
2022-12-28T05:45:16.086Z,66
2022-12-28T05:50:19.057Z,66
2022-12-28T05:55:19.182Z,66
2022-12-28T06:00:19.092Z,66
2022-12-28T06:05:16.061Z,66
2022-12-28T06:10:19.073Z,67
2022-12-28T06:15:16.067Z,67
2022-12-28T06:20:19.255Z,67
2022-12-28T06:25:19.073Z,67
2022-12-28T06:30:19.082Z,67
2022-12-28T06:35:19.056Z,67
2022-12-28T06:40:24.634Z,67
2022-12-28T06:45:19.082Z,68
2022-12-28T06:50:16.110Z,68
2022-12-28T06:55:19.148Z,68
2022-12-28T07:00:16.087Z,68
2022-12-28T07:05:19.094Z,68
2022-12-28T07:10:19.098Z,68
2022-12-28T07:15:19.083Z,68
2022-12-28T07:20:19.068Z,68
2022-12-28T07:25:19.126Z,68
2022-12-28T07:30:19.102Z,68
2022-12-28T07:35:19.081Z,68
2022-12-28T07:40:19.106Z,69
2022-12-28T07:45:19.105Z,69
2022-12-28T07:50:19.084Z,69
2022-12-28T07:55:16.177Z,69
2022-12-28T08:00:19.096Z,70
2022-12-28T08:05:16.145Z,70
2022-12-28T08:10:19.118Z,70
2022-12-28T08:15:19.134Z,70
2022-12-28T08:20:19.193Z,71
2022-12-28T08:25:16.164Z,71
2022-12-28T08:30:19.143Z,71
2022-12-28T08:35:16.163Z,71
2022-12-28T08:40:16.157Z,71
2022-12-28T08:45:19.134Z,71
2022-12-28T08:50:20.155Z,71
2022-12-28T08:55:19.202Z,71
2022-12-28T09:00:19.147Z,71
2022-12-28T09:05:16.159Z,72
2022-12-28T09:10:19.250Z,72
2022-12-28T09:15:16.158Z,72
2022-12-28T09:20:19.158Z,72
2022-12-28T09:25:19.267Z,72
2022-12-28T09:30:19.128Z,72
2022-12-28T09:35:19.143Z,72
2022-12-28T09:40:19.226Z,72
2022-12-28T09:45:19.177Z,72
2022-12-28T09:50:16.179Z,72
2022-12-28T09:55:19.235Z,72
2022-12-28T10:00:19.179Z,72
2022-12-28T10:05:16.171Z,72
2022-12-28T10:10:19.282Z,72
2022-12-28T10:15:19.203Z,72
2022-12-28T10:20:19.403Z,72
2022-12-28T10:25:16.188Z,72
2022-12-28T10:30:19.322Z,72
2022-12-28T10:35:19.297Z,72
2022-12-28T10:40:19.165Z,72
2022-12-28T10:45:19.177Z,72
2022-12-28T10:50:36.798Z,72
2022-12-28T10:55:19.264Z,72
2022-12-28T11:00:16.198Z,72
2022-12-28T11:05:19.245Z,72
2022-12-28T11:10:19.227Z,72
2022-12-28T11:15:19.242Z,72
2022-12-28T11:20:19.273Z,72
2022-12-28T11:25:16.259Z,72
2022-12-28T11:30:19.282Z,72
2022-12-28T11:35:16.241Z,72
2022-12-28T11:40:19.251Z,72
2022-12-28T11:45:19.236Z,72
2022-12-28T11:50:16.209Z,72
2022-12-28T11:55:19.248Z,72
2022-12-28T12:00:21.829Z,72
2022-12-28T12:05:19.227Z,72
2022-12-28T12:10:19.249Z,72
2022-12-28T12:15:19.200Z,72
2022-12-28T12:20:19.275Z,72
2022-12-28T12:25:16.269Z,72
2022-12-28T12:30:19.251Z,72
2022-12-28T12:35:19.321Z,72
2022-12-28T12:40:16.279Z,72
2022-12-28T12:45:16.252Z,72
2022-12-28T12:50:19.241Z,72
2022-12-28T12:55:16.324Z,72
2022-12-28T13:00:19.263Z,72
2022-12-28T13:05:19.316Z,72
2022-12-28T13:10:19.243Z,72
2022-12-28T13:15:19.252Z,72
2022-12-28T13:20:19.257Z,72
2022-12-28T13:25:16.307Z,72
2022-12-28T13:30:19.332Z,72
2022-12-28T13:35:16.322Z,72
2022-12-28T13:40:19.490Z,71
2022-12-28T13:45:19.306Z,71
2022-12-28T13:50:16.267Z,70
2022-12-28T13:55:16.329Z,70
2022-12-28T14:00:19.318Z,70
2022-12-28T14:05:16.405Z,70
2022-12-28T14:10:19.289Z,70
2022-12-28T14:15:16.331Z,70
2022-12-28T14:20:19.331Z,70
2022-12-28T14:25:16.329Z,69
2022-12-28T14:30:19.338Z,69
2022-12-28T14:35:19.334Z,69
2022-12-28T14:40:19.314Z,69
2022-12-28T14:45:19.330Z,68
2022-12-28T14:50:16.378Z,68
2022-12-28T14:55:19.376Z,67
2022-12-28T15:00:16.503Z,68
2022-12-28T15:05:19.334Z,67
2022-12-28T15:10:16.286Z,67
2022-12-28T15:15:16.390Z,67
2022-12-28T15:20:19.301Z,67
2022-12-28T15:25:16.357Z,67
2022-12-28T15:30:21.727Z,67
2022-12-28T15:35:19.386Z,67
2022-12-28T15:40:16.363Z,67
2022-12-28T15:45:16.352Z,67
2022-12-28T15:50:19.373Z,67
2022-12-28T15:55:19.348Z,68
2022-12-28T16:00:19.353Z,67
2022-12-28T16:05:19.316Z,67
2022-12-28T16:10:16.345Z,68
2022-12-28T16:15:16.350Z,67
2022-12-28T16:20:19.405Z,66
2022-12-28T16:25:16.507Z,66
2022-12-28T16:30:19.395Z,66
2022-12-28T16:35:19.398Z,66
2022-12-28T16:40:19.330Z,66
2022-12-28T16:45:19.379Z,66
2022-12-28T16:50:16.369Z,66
2022-12-28T16:55:19.362Z,66
2022-12-28T17:00:19.349Z,65
2022-12-28T17:05:16.385Z,65
2022-12-28T17:10:19.441Z,65
2022-12-28T17:15:19.393Z,64
2022-12-28T17:20:19.388Z,64
2022-12-28T17:25:19.461Z,63
2022-12-28T17:30:19.340Z,62
2022-12-28T17:35:19.361Z,61
2022-12-28T17:40:16.442Z,60
2022-12-28T17:45:16.281Z,59
2022-12-28T17:50:19.444Z,59
2022-12-28T17:55:19.377Z,59
2022-12-28T18:00:19.451Z,58
2022-12-28T18:05:19.359Z,58
2022-12-28T18:10:16.431Z,57
2022-12-28T18:15:19.417Z,56
2022-12-28T18:20:19.478Z,55
2022-12-28T18:25:19.432Z,56
2022-12-28T18:30:16.480Z,55
2022-12-28T18:35:19.475Z,55
2022-12-28T18:40:16.422Z,56
2022-12-28T18:45:19.499Z,56
2022-12-28T18:50:19.415Z,55
2022-12-28T18:55:19.402Z,55
2022-12-28T19:00:16.464Z,55
2022-12-28T19:05:16.444Z,56
2022-12-28T19:10:16.468Z,56
2022-12-28T19:15:19.421Z,56
2022-12-28T19:20:19.413Z,56
2022-12-28T19:25:16.484Z,56
2022-12-28T19:30:19.481Z,55
2022-12-28T19:35:16.525Z,55
2022-12-28T19:40:19.465Z,56
2022-12-28T19:45:19.504Z,56
2022-12-28T19:50:19.424Z,56
2022-12-28T19:55:19.425Z,56
2022-12-28T20:00:16.471Z,56
2022-12-28T20:05:19.471Z,56
2022-12-28T20:10:19.461Z,57
2022-12-28T20:15:16.489Z,57
2022-12-28T20:20:17.715Z,57
2022-12-28T20:25:19.504Z,56
2022-12-28T20:30:19.463Z,56
2022-12-28T20:35:16.619Z,56
2022-12-28T20:40:16.505Z,56
2022-12-28T20:45:19.502Z,55
2022-12-28T20:50:16.538Z,55
2022-12-28T20:55:19.489Z,54
2022-12-28T21:00:16.525Z,54
2022-12-28T21:05:16.530Z,55
2022-12-28T21:10:19.594Z,55
2022-12-28T21:15:19.570Z,55
2022-12-28T21:20:16.507Z,55
2022-12-28T21:25:19.528Z,55
2022-12-28T21:30:19.504Z,55
2022-12-28T21:35:16.519Z,55
2022-12-28T21:40:19.484Z,56
2022-12-28T21:45:19.774Z,56
2022-12-28T21:50:16.553Z,56
2022-12-28T21:55:19.513Z,56
2022-12-28T22:00:16.581Z,57
2022-12-28T22:05:19.537Z,57
2022-12-28T22:10:19.536Z,57
2022-12-28T22:15:16.582Z,57
2022-12-28T22:20:19.548Z,57
2022-12-28T22:25:19.560Z,57
2022-12-28T22:30:16.546Z,57
2022-12-28T22:35:19.536Z,57
2022-12-28T22:40:19.529Z,57
2022-12-28T22:45:19.534Z,57
2022-12-28T22:50:19.521Z,57
2022-12-28T22:55:19.563Z,57
2022-12-28T23:00:19.524Z,57
2022-12-28T23:05:16.552Z,57
2022-12-28T23:10:19.627Z,57
2022-12-28T23:15:19.981Z,57
2022-12-28T23:20:16.631Z,57
2022-12-28T23:25:19.611Z,57
2022-12-28T23:30:19.575Z,57
2022-12-28T23:35:16.603Z,57
2022-12-28T23:40:19.552Z,57
2022-12-28T23:45:19.562Z,57
2022-12-28T23:50:16.600Z,57
2022-12-28T23:55:19.577Z,57
